Autopride — CQQE — position and weather

sailwx.info

Track history (hours):
 
Tides and Currents Weather Stations Pressure Air Temp Water Temp Dewpoint Dewpoint Depression Visibility Wind Speed Wind Dir Waves Ship Positions

Autopride

Last reported at 2014-Jul-28 19:25 UTC. Time now 2014-Jul-29 00:40 UTC.
Position N 50°44' W 005°12'.

Length 125 m; draft 5.5 m.

Type: Cargo ship. MMSI: 255801560.

Date/timePositionNaut miles runAvg speedWind from/ knotsBaromVisibWave heightAir tempDewpointWater temp
2014-Jul-28 19:25N 50°44' W 005°12'8 8.9
2014-Jul-28 18:33N 50°39' W 005°21'10 9.6
2014-Jul-28 17:33N 50°32' W 005°32'10 9.8
2014-Jul-28 16:33N 50°26' W 005°43'254 8.5
2014-Jul-27 10:33N 46°17' W 004°20'9 8.9
2014-Jul-27 09:33N 46°10' W 004°13'35 8.9
2014-Jul-27 05:33N 45°39' W 003°47'9 8.6
2014-Jul-27 04:33N 45°32' W 003°40'63 8.7
2014-Jul-26 21:22N 44°38' W 002°56'8 8.8
2014-Jul-26 20:28N 44°31' W 002°50'8 8.5
2014-Jul-26 19:33N 44°24' W 002°45'13 9.3
2014-Jul-26 18:11N 44°13' W 002°36'33 2.0
2014-Jul-26 01:31N 43°44' W 002°14'1010.2
2014-Jul-26 00:30N 43°53' W 002°21'2010.4
2014-Jul-25 22:33N 44°11' W 002°35'1010.3
2014-Jul-25 21:33N 44°20' W 002°42'5510.3
2014-Jul-25 16:12N 45°08' W 003°20'4310.4
2014-Jul-25 12:05N 45°45' W 003°50'9910.3
2014-Jul-25 02:31N 47°12' W 005°01'9 9.9
2014-Jul-25 01:33N 47°20' W 005°07'1010.0
2014-Jul-25 00:33N 47°28' W 005°15'11 9.6
2014-Jul-24 23:27N 47°37' W 005°23'158 9.7
2014-Jul-24 07:08N 50°14' W 006°00'610.7
2014-Jul-24 06:33N 50°20' W 005°60'1110.6
2014-Jul-24 05:33N 50°27' W 005°47'1110.5
2014-Jul-24 04:33N 50°33' W 005°34'1010.1
2014-Jul-24 03:33N 50°40' W 005°22'10 9.6
2014-Jul-24 02:33N 50°46' W 005°10'9 9.4
2014-Jul-24 01:33N 50°52' W 004°59'6510.1
2014-Jul-23 19:07N 51°21' W 003°27'713.1
2014-Jul-23 18:33N 51°21' W 003°15'1616.5
2014-Jul-23 17:34N 51°28' W 002°51'5 4.9
2014-Jul-23 16:33N 51°30' W 002°43'0 0.0
2014-Jul-23 15:33N 51°30' W 002°43'0 0.0
2014-Jul-23 14:33N 51°30' W 002°43'0 0.0
2014-Jul-23 13:34N 51°30' W 002°43'0 0.0
2014-Jul-23 12:34N 51°30' W 002°43'0 0.0
2014-Jul-23 11:33N 51°30' W 002°43'0 0.0
2014-Jul-23 10:33N 51°30' W 002°43'0 0.0
2014-Jul-23 09:33N 51°30' W 002°43'0 0.0
2014-Jul-23 08:33N 51°30' W 002°43'0 0.0
2014-Jul-23 07:34N 51°30' W 002°43'0 0.0
2014-Jul-23 06:34N 51°30' W 002°43'0 0.0
2014-Jul-23 05:34N 51°30' W 002°43'2 1.8
2014-Jul-23 04:34N 51°30' W 002°46'1616.2
2014-Jul-23 03:33N 51°21' W 003°08'8613.7
2014-Jul-22 21:17N 50°44' W 005°11'912.3
2014-Jul-22 20:34N 50°38' W 005°21'1211.9
2014-Jul-22 19:33N 50°30' W 005°35'1211.7
2014-Jul-22 18:33N 50°22' W 005°49'16413.6
2014-Jul-22 06:30N 47°39' W 005°24'3115.9
2014-Jul-22 04:32N 47°12' W 005°02'26210.5
2014-Jul-21 03:33N 43°24' W 001°58'  
Track history (hours):
 
Tides and Currents Weather Stations Pressure Air Temp Water Temp Dewpoint Dewpoint Depression Visibility Wind Speed Wind Dir Waves Ship Positions

Autopride

Last reported at 2014-Jul-28 19:25 UTC. Time now 2014-Jul-29 00:40 UTC.
Position N 50°44' W 005°12'.

Length 125 m; draft 5.5 m.

Type: Cargo ship. MMSI: 255801560.

Date/timePositionNaut miles runAvg speedWind from/ knotsBaromVisibWave heightAir tempDewpointWater temp
2014-Jul-28 19:25N 50°44' W 005°12'8 8.9
2014-Jul-28 18:33N 50°39' W 005°21'10 9.6
2014-Jul-28 17:33N 50°32' W 005°32'10 9.8
2014-Jul-28 16:33N 50°26' W 005°43'254 8.5
2014-Jul-27 10:33N 46°17' W 004°20'9 8.9
2014-Jul-27 09:33N 46°10' W 004°13'35 8.9
2014-Jul-27 05:33N 45°39' W 003°47'9 8.6
2014-Jul-27 04:33N 45°32' W 003°40'63 8.7
2014-Jul-26 21:22N 44°38' W 002°56'8 8.8
2014-Jul-26 20:28N 44°31' W 002°50'8 8.5
2014-Jul-26 19:33N 44°24' W 002°45'13 9.3
2014-Jul-26 18:11N 44°13' W 002°36'33 2.0
2014-Jul-26 01:31N 43°44' W 002°14'1010.2
2014-Jul-26 00:30N 43°53' W 002°21'2010.4
2014-Jul-25 22:33N 44°11' W 002°35'1010.3
2014-Jul-25 21:33N 44°20' W 002°42'5510.3
2014-Jul-25 16:12N 45°08' W 003°20'4310.4
2014-Jul-25 12:05N 45°45' W 003°50'9910.3
2014-Jul-25 02:31N 47°12' W 005°01'9 9.9
2014-Jul-25 01:33N 47°20' W 005°07'1010.0
2014-Jul-25 00:33N 47°28' W 005°15'11 9.6
2014-Jul-24 23:27N 47°37' W 005°23'158 9.7
2014-Jul-24 07:08N 50°14' W 006°00'610.7
2014-Jul-24 06:33N 50°20' W 005°60'1110.6
2014-Jul-24 05:33N 50°27' W 005°47'1110.5
2014-Jul-24 04:33N 50°33' W 005°34'1010.1
2014-Jul-24 03:33N 50°40' W 005°22'10 9.6
2014-Jul-24 02:33N 50°46' W 005°10'9 9.4
2014-Jul-24 01:33N 50°52' W 004°59'6510.1
2014-Jul-23 19:07N 51°21' W 003°27'713.1
2014-Jul-23 18:33N 51°21' W 003°15'1616.5
2014-Jul-23 17:34N 51°28' W 002°51'5 4.9
2014-Jul-23 16:33N 51°30' W 002°43'0 0.0
2014-Jul-23 15:33N 51°30' W 002°43'0 0.0
2014-Jul-23 14:33N 51°30' W 002°43'0 0.0
2014-Jul-23 13:34N 51°30' W 002°43'0 0.0
2014-Jul-23 12:34N 51°30' W 002°43'0 0.0
2014-Jul-23 11:33N 51°30' W 002°43'0 0.0
2014-Jul-23 10:33N 51°30' W 002°43'0 0.0
2014-Jul-23 09:33N 51°30' W 002°43'0 0.0
2014-Jul-23 08:33N 51°30' W 002°43'0 0.0
2014-Jul-23 07:34N 51°30' W 002°43'0 0.0
2014-Jul-23 06:34N 51°30' W 002°43'0 0.0
2014-Jul-23 05:34N 51°30' W 002°43'2 1.8
2014-Jul-23 04:34N 51°30' W 002°46'1616.2
2014-Jul-23 03:33N 51°21' W 003°08'8613.7
2014-Jul-22 21:17N 50°44' W 005°11'912.3
2014-Jul-22 20:34N 50°38' W 005°21'1211.9
2014-Jul-22 19:33N 50°30' W 005°35'1211.7
2014-Jul-22 18:33N 50°22' W 005°49'16413.6
2014-Jul-22 06:30N 47°39' W 005°24'3115.9
2014-Jul-22 04:32N 47°12' W 005°02'26210.5
2014-Jul-21 03:33N 43°24' W 001°58'  

Dump ship's entire track history